sensor_id;sensor_type;location;lat;lon;timestamp;P1;durP1;ratioP1;P2;durP2;ratioP2
19107;SDS011;9686;48.832;9.126;2023-02-28T00:00:53;2.17;;;1.73;;
19107;SDS011;9686;48.832;9.126;2023-02-28T00:03:18;2.87;;;2.13;;
19107;SDS011;9686;48.832;9.126;2023-02-28T00:05:43;3.80;;;2.07;;
19107;SDS011;9686;48.832;9.126;2023-02-28T00:08:18;3.23;;;1.93;;
19107;SDS011;9686;48.832;9.126;2023-02-28T00:10:53;2.07;;;1.87;;
19107;SDS011;9686;48.832;9.126;2023-02-28T00:13:18;3.53;;;2.40;;
19107;SDS011;9686;48.832;9.126;2023-02-28T00:15:43;3.60;;;2.00;;
19107;SDS011;9686;48.832;9.126;2023-02-28T00:18:10;3.47;;;2.30;;
19107;SDS011;9686;48.832;9.126;2023-02-28T00:20:45;3.00;;;1.80;;
19107;SDS011;9686;48.832;9.126;2023-02-28T00:23:21;2.73;;;2.13;;
19107;SDS011;9686;48.832;9.126;2023-02-28T00:25:46;2.67;;;1.87;;
19107;SDS011;9686;48.832;9.126;2023-02-28T00:28:12;2.17;;;1.97;;
19107;SDS011;9686;48.832;9.126;2023-02-28T00:30:38;3.03;;;2.30;;
19107;SDS011;9686;48.832;9.126;2023-02-28T00:33:12;3.87;;;2.00;;
19107;SDS011;9686;48.832;9.126;2023-02-28T00:36:02;3.23;;;2.03;;
19107;SDS011;9686;48.832;9.126;2023-02-28T00:38:31;3.90;;;2.30;;
19107;SDS011;9686;48.832;9.126;2023-02-28T00:40:57;5.63;;;2.17;;
19107;SDS011;9686;48.832;9.126;2023-02-28T00:43:23;4.73;;;2.40;;
19107;SDS011;9686;48.832;9.126;2023-02-28T00:48:51;2.60;;;2.40;;
19107;SDS011;9686;48.832;9.126;2023-02-28T00:51:16;2.43;;;2.23;;
19107;SDS011;9686;48.832;9.126;2023-02-28T00:53:44;3.83;;;2.53;;
19107;SDS011;9686;48.832;9.126;2023-02-28T00:56:09;2.43;;;2.00;;
19107;SDS011;9686;48.832;9.126;2023-02-28T00:58:35;5.57;;;2.30;;
19107;SDS011;9686;48.832;9.126;2023-02-28T01:01:00;3.67;;;2.50;;
19107;SDS011;9686;48.832;9.126;2023-02-28T01:03:26;3.70;;;2.40;;
19107;SDS011;9686;48.832;9.126;2023-02-28T01:06:03;3.73;;;2.37;;
19107;SDS011;9686;48.832;9.126;2023-02-28T01:09:14;3.37;;;2.60;;
19107;SDS011;9686;48.832;9.126;2023-02-28T01:11:20;4.90;;;2.07;;
19107;SDS011;9686;48.832;9.126;2023-02-28T01:16:51;4.83;;;2.60;;
19107;SDS011;9686;48.832;9.126;2023-02-28T01:19:17;5.50;;;2.57;;
19107;SDS011;9686;48.832;9.126;2023-02-28T01:21:42;4.37;;;2.50;;
19107;SDS011;9686;48.832;9.126;2023-02-28T01:24:15;4.90;;;2.80;;
19107;SDS011;9686;48.832;9.126;2023-02-28T01:29:15;6.43;;;2.60;;
19107;SDS011;9686;48.832;9.126;2023-02-28T01:31:40;4.90;;;2.53;;
19107;SDS011;9686;48.832;9.126;2023-02-28T01:34:09;4.00;;;2.80;;
19107;SDS011;9686;48.832;9.126;2023-02-28T01:36:39;3.37;;;2.80;;
19107;SDS011;9686;48.832;9.126;2023-02-28T01:39:08;3.00;;;2.57;;
19107;SDS011;9686;48.832;9.126;2023-02-28T01:41:43;2.83;;;2.30;;
19107;SDS011;9686;48.832;9.126;2023-02-28T01:47:14;3.80;;;2.60;;
19107;SDS011;9686;48.832;9.126;2023-02-28T01:49:40;3.33;;;2.90;;
19107;SDS011;9686;48.832;9.126;2023-02-28T01:52:14;2.93;;;2.73;;
19107;SDS011;9686;48.832;9.126;2023-02-28T01:55:04;3.10;;;2.43;;
19107;SDS011;9686;48.832;9.126;2023-02-28T01:57:48;6.00;;;3.03;;
19107;SDS011;9686;48.832;9.126;2023-02-28T02:00:20;4.10;;;3.30;;
19107;SDS011;9686;48.832;9.126;2023-02-28T02:02:52;3.83;;;3.00;;
19107;SDS011;9686;48.832;9.126;2023-02-28T02:05:39;4.33;;;2.80;;
19107;SDS011;9686;48.832;9.126;2023-02-28T02:08:06;5.37;;;3.20;;
19107;SDS011;9686;48.832;9.126;2023-02-28T02:19:43;4.63;;;3.10;;
19107;SDS011;9686;48.832;9.126;2023-02-28T02:36:50;4.27;;;3.17;;
19107;SDS011;9686;48.832;9.126;2023-02-28T02:39:26;4.33;;;2.47;;
19107;SDS011;9686;48.832;9.126;2023-02-28T02:42:01;3.80;;;2.93;;
19107;SDS011;9686;48.832;9.126;2023-02-28T02:44:40;4.73;;;2.80;;
19107;SDS011;9686;48.832;9.126;2023-02-28T02:47:11;4.53;;;3.00;;
19107;SDS011;9686;48.832;9.126;2023-02-28T02:49:50;5.27;;;3.03;;
19107;SDS011;9686;48.832;9.126;2023-02-28T02:52:23;5.83;;;3.20;;
19107;SDS011;9686;48.832;9.126;2023-02-28T02:54:55;4.57;;;2.83;;
19107;SDS011;9686;48.832;9.126;2023-02-28T02:57:49;4.67;;;3.30;;
19107;SDS011;9686;48.832;9.126;2023-02-28T03:00:42;3.60;;;3.23;;
19107;SDS011;9686;48.832;9.126;2023-02-28T03:03:16;3.30;;;2.80;;
19107;SDS011;9686;48.832;9.126;2023-02-28T03:05:57;6.33;;;3.50;;
19107;SDS011;9686;48.832;9.126;2023-02-28T03:08:24;4.97;;;3.00;;
19107;SDS011;9686;48.832;9.126;2023-02-28T03:11:00;4.60;;;3.33;;
19107;SDS011;9686;48.832;9.126;2023-02-28T03:13:41;3.90;;;2.90;;
19107;SDS011;9686;48.832;9.126;2023-02-28T03:18:52;5.23;;;3.50;;
19107;SDS011;9686;48.832;9.126;2023-02-28T03:24:18;4.50;;;3.60;;
19107;SDS011;9686;48.832;9.126;2023-02-28T03:26:54;3.63;;;3.03;;
19107;SDS011;9686;48.832;9.126;2023-02-28T03:29:40;4.23;;;3.50;;
19107;SDS011;9686;48.832;9.126;2023-02-28T03:32:13;4.90;;;3.87;;
19107;SDS011;9686;48.832;9.126;2023-02-28T03:37:35;4.13;;;3.20;;
19107;SDS011;9686;48.832;9.126;2023-02-28T03:43:56;6.57;;;3.40;;
19107;SDS011;9686;48.832;9.126;2023-02-28T03:49:46;4.50;;;2.93;;
19107;SDS011;9686;48.832;9.126;2023-02-28T03:52:20;6.87;;;4.03;;
19107;SDS011;9686;48.832;9.126;2023-02-28T03:54:52;5.00;;;3.23;;
19107;SDS011;9686;48.832;9.126;2023-02-28T03:57:33;4.50;;;3.10;;
19107;SDS011;9686;48.832;9.126;2023-02-28T04:00:14;5.10;;;3.50;;
19107;SDS011;9686;48.832;9.126;2023-02-28T04:02:59;6.13;;;3.67;;
19107;SDS011;9686;48.832;9.126;2023-02-28T04:05:30;4.23;;;3.40;;
19107;SDS011;9686;48.832;9.126;2023-02-28T04:08:13;4.10;;;3.37;;
19107;SDS011;9686;48.832;9.126;2023-02-28T04:14:03;3.97;;;3.37;;
19107;SDS011;9686;48.832;9.126;2023-02-28T04:16:33;4.70;;;3.30;;
19107;SDS011;9686;48.832;9.126;2023-02-28T04:19:03;5.90;;;3.33;;
19107;SDS011;9686;48.832;9.126;2023-02-28T04:21:46;5.87;;;3.93;;
19107;SDS011;9686;48.832;9.126;2023-02-28T04:24:17;5.50;;;3.63;;
19107;SDS011;9686;48.832;9.126;2023-02-28T04:26:54;3.93;;;3.20;;
19107;SDS011;9686;48.832;9.126;2023-02-28T04:29:36;4.63;;;3.87;;
19107;SDS011;9686;48.832;9.126;2023-02-28T04:32:02;4.23;;;3.37;;
19107;SDS011;9686;48.832;9.126;2023-02-28T04:34:46;5.40;;;3.87;;
19107;SDS011;9686;48.832;9.126;2023-02-28T04:37:11;5.30;;;4.03;;
19107;SDS011;9686;48.832;9.126;2023-02-28T04:39:39;6.00;;;3.80;;
19107;SDS011;9686;48.832;9.126;2023-02-28T04:42:11;4.73;;;3.90;;
19107;SDS011;9686;48.832;9.126;2023-02-28T04:44:39;5.83;;;3.90;;
19107;SDS011;9686;48.832;9.126;2023-02-28T04:47:08;3.90;;;3.37;;
19107;SDS011;9686;48.832;9.126;2023-02-28T04:49:33;5.83;;;4.53;;
19107;SDS011;9686;48.832;9.126;2023-02-28T04:52:01;4.70;;;3.63;;
19107;SDS011;9686;48.832;9.126;2023-02-28T04:54:38;4.50;;;3.93;;
19107;SDS011;9686;48.832;9.126;2023-02-28T04:57:10;4.53;;;3.60;;
19107;SDS011;9686;48.832;9.126;2023-02-28T04:59:41;4.90;;;3.90;;
19107;SDS011;9686;48.832;9.126;2023-02-28T05:02:06;4.23;;;3.80;;
19107;SDS011;9686;48.832;9.126;2023-02-28T05:04:37;5.33;;;4.00;;
19107;SDS011;9686;48.832;9.126;2023-02-28T05:07:34;5.00;;;3.80;;
19107;SDS011;9686;48.832;9.126;2023-02-28T05:13:09;8.83;;;4.67;;
19107;SDS011;9686;48.832;9.126;2023-02-28T05:15:47;6.77;;;4.17;;
19107;SDS011;9686;48.832;9.126;2023-02-28T05:18:29;6.33;;;4.07;;
19107;SDS011;9686;48.832;9.126;2023-02-28T05:20:55;5.13;;;3.50;;
19107;SDS011;9686;48.832;9.126;2023-02-28T05:23:28;5.43;;;4.17;;
19107;SDS011;9686;48.832;9.126;2023-02-28T05:25:57;7.37;;;4.00;;
19107;SDS011;9686;48.832;9.126;2023-02-28T05:28:23;4.73;;;3.43;;
19107;SDS011;9686;48.832;9.126;2023-02-28T05:30:51;5.70;;;4.17;;
19107;SDS011;9686;48.832;9.126;2023-02-28T05:33:16;9.47;;;4.27;;
19107;SDS011;9686;48.832;9.126;2023-02-28T05:35:45;7.03;;;4.03;;
19107;SDS011;9686;48.832;9.126;2023-02-28T05:38:10;6.47;;;4.00;;
19107;SDS011;9686;48.832;9.126;2023-02-28T05:40:38;5.73;;;4.47;;
19107;SDS011;9686;48.832;9.126;2023-02-28T05:43:39;5.57;;;3.93;;
19107;SDS011;9686;48.832;9.126;2023-02-28T05:46:05;7.37;;;4.30;;
19107;SDS011;9686;48.832;9.126;2023-02-28T05:48:41;5.40;;;3.80;;
19107;SDS011;9686;48.832;9.126;2023-02-28T05:51:10;7.17;;;4.70;;
19107;SDS011;9686;48.832;9.126;2023-02-28T05:53:38;5.67;;;4.33;;
19107;SDS011;9686;48.832;9.126;2023-02-28T05:56:04;6.27;;;4.47;;
19107;SDS011;9686;48.832;9.126;2023-02-28T05:58:30;7.63;;;4.10;;
19107;SDS011;9686;48.832;9.126;2023-02-28T06:00:56;7.63;;;4.67;;
19107;SDS011;9686;48.832;9.126;2023-02-28T06:07:12;6.07;;;4.10;;
19107;SDS011;9686;48.832;9.126;2023-02-28T06:13:01;9.70;;;4.93;;
19107;SDS011;9686;48.832;9.126;2023-02-28T06:18:59;6.50;;;4.33;;
19107;SDS011;9686;48.832;9.126;2023-02-28T06:29:24;7.63;;;5.27;;
19107;SDS011;9686;48.832;9.126;2023-02-28T06:32:09;7.57;;;4.67;;
19107;SDS011;9686;48.832;9.126;2023-02-28T06:38:00;7.83;;;5.10;;
19107;SDS011;9686;48.832;9.126;2023-02-28T06:43:47;5.93;;;4.73;;
19107;SDS011;9686;48.832;9.126;2023-02-28T06:49:54;6.70;;;4.47;;
19107;SDS011;9686;48.832;9.126;2023-02-28T06:55:42;7.70;;;5.30;;
19107;SDS011;9686;48.832;9.126;2023-02-28T07:01:46;8.30;;;4.90;;
19107;SDS011;9686;48.832;9.126;2023-02-28T07:07:27;8.67;;;4.93;;
19107;SDS011;9686;48.832;9.126;2023-02-28T07:13:14;8.20;;;4.63;;
19107;SDS011;9686;48.832;9.126;2023-02-28T07:19:01;9.07;;;4.83;;
19107;SDS011;9686;48.832;9.126;2023-02-28T07:24:50;6.70;;;4.37;;
19107;SDS011;9686;48.832;9.126;2023-02-28T07:29:46;5.50;;;4.63;;
19107;SDS011;9686;48.832;9.126;2023-02-28T07:32:11;7.10;;;4.97;;
19107;SDS011;9686;48.832;9.126;2023-02-28T07:34:40;8.53;;;5.10;;
19107;SDS011;9686;48.832;9.126;2023-02-28T07:37:06;8.27;;;5.57;;
19107;SDS011;9686;48.832;9.126;2023-02-28T07:39:31;7.40;;;5.03;;
19107;SDS011;9686;48.832;9.126;2023-02-28T07:41:57;7.10;;;5.13;;
19107;SDS011;9686;48.832;9.126;2023-02-28T07:44:24;7.20;;;5.43;;
19107;SDS011;9686;48.832;9.126;2023-02-28T07:46:51;8.00;;;5.37;;
19107;SDS011;9686;48.832;9.126;2023-02-28T07:49:18;8.10;;;5.57;;
19107;SDS011;9686;48.832;9.126;2023-02-28T07:51:44;8.97;;;4.90;;
19107;SDS011;9686;48.832;9.126;2023-02-28T07:54:09;7.33;;;4.37;;
19107;SDS011;9686;48.832;9.126;2023-02-28T07:56:34;9.53;;;5.97;;
19107;SDS011;9686;48.832;9.126;2023-02-28T07:59:00;8.63;;;5.33;;
19107;SDS011;9686;48.832;9.126;2023-02-28T08:01:26;7.93;;;5.10;;
19107;SDS011;9686;48.832;9.126;2023-02-28T08:03:55;8.93;;;5.70;;
19107;SDS011;9686;48.832;9.126;2023-02-28T08:06:23;7.87;;;5.47;;
19107;SDS011;9686;48.832;9.126;2023-02-28T08:08:50;9.23;;;5.40;;
19107;SDS011;9686;48.832;9.126;2023-02-28T08:11:18;9.23;;;6.27;;
19107;SDS011;9686;48.832;9.126;2023-02-28T08:13:44;9.53;;;5.40;;
19107;SDS011;9686;48.832;9.126;2023-02-28T08:16:10;7.60;;;5.70;;
19107;SDS011;9686;48.832;9.126;2023-02-28T08:18:37;8.60;;;6.37;;
19107;SDS011;9686;48.832;9.126;2023-02-28T08:21:06;8.03;;;5.53;;
19107;SDS011;9686;48.832;9.126;2023-02-28T08:23:33;8.20;;;5.00;;
19107;SDS011;9686;48.832;9.126;2023-02-28T08:25:58;8.00;;;6.30;;
19107;SDS011;9686;48.832;9.126;2023-02-28T08:28:24;9.23;;;5.43;;
19107;SDS011;9686;48.832;9.126;2023-02-28T08:30:52;8.17;;;5.37;;
19107;SDS011;9686;48.832;9.126;2023-02-28T08:33:19;8.10;;;5.30;;
19107;SDS011;9686;48.832;9.126;2023-02-28T08:35:45;7.37;;;5.20;;
19107;SDS011;9686;48.832;9.126;2023-02-28T08:38:12;7.13;;;5.80;;
19107;SDS011;9686;48.832;9.126;2023-02-28T08:40:38;8.83;;;6.07;;
19107;SDS011;9686;48.832;9.126;2023-02-28T08:43:05;9.13;;;6.00;;
19107;SDS011;9686;48.832;9.126;2023-02-28T08:45:31;7.77;;;5.30;;
19107;SDS011;9686;48.832;9.126;2023-02-28T08:47:57;9.43;;;6.13;;
19107;SDS011;9686;48.832;9.126;2023-02-28T08:50:25;6.80;;;5.67;;
19107;SDS011;9686;48.832;9.126;2023-02-28T08:52:51;8.27;;;5.67;;
19107;SDS011;9686;48.832;9.126;2023-02-28T08:55:17;7.37;;;5.70;;
19107;SDS011;9686;48.832;9.126;2023-02-28T08:57:43;9.83;;;6.40;;
19107;SDS011;9686;48.832;9.126;2023-02-28T09:00:08;9.53;;;6.37;;
19107;SDS011;9686;48.832;9.126;2023-02-28T09:02:38;7.67;;;6.03;;
19107;SDS011;9686;48.832;9.126;2023-02-28T09:05:05;9.30;;;6.30;;
19107;SDS011;9686;48.832;9.126;2023-02-28T09:07:35;11.13;;;6.80;;
19107;SDS011;9686;48.832;9.126;2023-02-28T09:10:00;7.97;;;5.87;;
19107;SDS011;9686;48.832;9.126;2023-02-28T09:12:32;9.63;;;5.93;;
19107;SDS011;9686;48.832;9.126;2023-02-28T09:15:02;7.10;;;5.47;;
19107;SDS011;9686;48.832;9.126;2023-02-28T09:17:28;7.63;;;5.90;;
19107;SDS011;9686;48.832;9.126;2023-02-28T09:19:54;8.37;;;6.27;;
19107;SDS011;9686;48.832;9.126;2023-02-28T09:22:20;7.83;;;6.33;;
19107;SDS011;9686;48.832;9.126;2023-02-28T09:24:46;8.27;;;6.10;;
19107;SDS011;9686;48.832;9.126;2023-02-28T09:27:12;9.13;;;5.97;;
19107;SDS011;9686;48.832;9.126;2023-02-28T09:29:38;8.43;;;6.03;;
19107;SDS011;9686;48.832;9.126;2023-02-28T09:32:04;9.23;;;6.43;;
19107;SDS011;9686;48.832;9.126;2023-02-28T09:34:31;8.80;;;6.43;;
19107;SDS011;9686;48.832;9.126;2023-02-28T09:37:04;10.93;;;6.77;;
19107;SDS011;9686;48.832;9.126;2023-02-28T09:39:30;9.13;;;6.30;;
19107;SDS011;9686;48.832;9.126;2023-02-28T09:41:56;8.80;;;6.17;;
19107;SDS011;9686;48.832;9.126;2023-02-28T09:44:35;9.60;;;7.00;;
19107;SDS011;9686;48.832;9.126;2023-02-28T09:47:14;9.40;;;6.80;;
19107;SDS011;9686;48.832;9.126;2023-02-28T09:49:58;10.17;;;6.47;;
19107;SDS011;9686;48.832;9.126;2023-02-28T09:52:32;8.60;;;6.40;;
19107;SDS011;9686;48.832;9.126;2023-02-28T09:55:18;10.27;;;7.37;;
19107;SDS011;9686;48.832;9.126;2023-02-28T09:57:56;10.30;;;6.73;;
19107;SDS011;9686;48.832;9.126;2023-02-28T10:00:34;7.80;;;5.97;;
19107;SDS011;9686;48.832;9.126;2023-02-28T10:05:54;7.90;;;6.33;;
19107;SDS011;9686;48.832;9.126;2023-02-28T10:08:30;8.00;;;6.00;;
19107;SDS011;9686;48.832;9.126;2023-02-28T10:11:01;10.77;;;6.63;;
19107;SDS011;9686;48.832;9.126;2023-02-28T10:16:01;8.20;;;5.90;;
19107;SDS011;9686;48.832;9.126;2023-02-28T10:18:39;13.00;;;7.50;;
19107;SDS011;9686;48.832;9.126;2023-02-28T10:21:21;9.20;;;6.63;;
19107;SDS011;9686;48.832;9.126;2023-02-28T10:23:55;10.97;;;7.03;;
19107;SDS011;9686;48.832;9.126;2023-02-28T10:26:27;9.60;;;6.70;;
19107;SDS011;9686;48.832;9.126;2023-02-28T10:28:56;9.37;;;6.27;;
19107;SDS011;9686;48.832;9.126;2023-02-28T10:31:24;9.93;;;7.03;;
19107;SDS011;9686;48.832;9.126;2023-02-28T10:33:49;10.17;;;7.17;;
19107;SDS011;9686;48.832;9.126;2023-02-28T10:36:16;9.90;;;7.37;;
19107;SDS011;9686;48.832;9.126;2023-02-28T10:38:44;9.33;;;7.53;;
19107;SDS011;9686;48.832;9.126;2023-02-28T10:41:13;11.47;;;7.13;;
19107;SDS011;9686;48.832;9.126;2023-02-28T10:43:43;9.70;;;6.60;;
19107;SDS011;9686;48.832;9.126;2023-02-28T10:48:41;11.37;;;6.93;;
19107;SDS011;9686;48.832;9.126;2023-02-28T10:51:19;7.97;;;6.97;;
19107;SDS011;9686;48.832;9.126;2023-02-28T10:53:51;8.00;;;6.90;;
19107;SDS011;9686;48.832;9.126;2023-02-28T10:56:20;9.23;;;6.83;;
19107;SDS011;9686;48.832;9.126;2023-02-28T11:01:15;10.37;;;7.20;;
19107;SDS011;9686;48.832;9.126;2023-02-28T11:03:47;9.03;;;7.27;;
19107;SDS011;9686;48.832;9.126;2023-02-28T11:06:17;10.47;;;6.73;;
19107;SDS011;9686;48.832;9.126;2023-02-28T11:08:51;9.13;;;7.07;;
19107;SDS011;9686;48.832;9.126;2023-02-28T11:11:19;10.07;;;7.20;;
19107;SDS011;9686;48.832;9.126;2023-02-28T11:13:47;10.57;;;7.60;;
19107;SDS011;9686;48.832;9.126;2023-02-28T11:16:17;9.77;;;7.57;;
19107;SDS011;9686;48.832;9.126;2023-02-28T11:18:48;8.13;;;7.07;;
19107;SDS011;9686;48.832;9.126;2023-02-28T11:21:19;10.23;;;6.97;;
19107;SDS011;9686;48.832;9.126;2023-02-28T11:23:48;9.53;;;6.97;;
19107;SDS011;9686;48.832;9.126;2023-02-28T11:26:18;9.87;;;7.30;;
19107;SDS011;9686;48.832;9.126;2023-02-28T11:32:11;8.03;;;6.70;;
19107;SDS011;9686;48.832;9.126;2023-02-28T11:37:35;10.50;;;7.40;;
19107;SDS011;9686;48.832;9.126;2023-02-28T11:40:01;7.63;;;6.83;;
19107;SDS011;9686;48.832;9.126;2023-02-28T11:48:00;11.60;;;7.70;;
19107;SDS011;9686;48.832;9.126;2023-02-28T11:50:49;8.27;;;6.80;;
19107;SDS011;9686;48.832;9.126;2023-02-28T11:53:21;8.37;;;6.47;;
19107;SDS011;9686;48.832;9.126;2023-02-28T11:56:24;8.17;;;7.10;;
19107;SDS011;9686;48.832;9.126;2023-02-28T11:59:00;9.90;;;7.27;;
19107;SDS011;9686;48.832;9.126;2023-02-28T12:07:18;12.33;;;8.50;;
19107;SDS011;9686;48.832;9.126;2023-02-28T12:15:23;11.13;;;7.70;;
19107;SDS011;9686;48.832;9.126;2023-02-28T12:27:36;9.27;;;7.50;;
19107;SDS011;9686;48.832;9.126;2023-02-28T12:33:36;8.07;;;6.93;;
19107;SDS011;9686;48.832;9.126;2023-02-28T12:36:10;9.10;;;7.10;;
19107;SDS011;9686;48.832;9.126;2023-02-28T12:39:12;7.50;;;6.73;;
19107;SDS011;9686;48.832;9.126;2023-02-28T12:45:39;9.20;;;7.17;;
19107;SDS011;9686;48.832;9.126;2023-02-28T12:51:15;8.53;;;6.37;;
19107;SDS011;9686;48.832;9.126;2023-02-28T12:57:22;8.43;;;6.47;;
19107;SDS011;9686;48.832;9.126;2023-02-28T12:59:58;8.03;;;6.83;;
19107;SDS011;9686;48.832;9.126;2023-02-28T13:03:44;11.40;;;6.83;;
19107;SDS011;9686;48.832;9.126;2023-02-28T13:09:54;13.33;;;6.83;;
19107;SDS011;9686;48.832;9.126;2023-02-28T13:12:33;9.33;;;6.93;;
19107;SDS011;9686;48.832;9.126;2023-02-28T13:15:35;8.53;;;7.00;;
19107;SDS011;9686;48.832;9.126;2023-02-28T17:27:36;9.50;;;7.87;;
19107;SDS011;9686;48.832;9.126;2023-02-28T17:30:31;11.17;;;8.43;;
19107;SDS011;9686;48.832;9.126;2023-02-28T17:33:15;13.43;;;8.97;;
19107;SDS011;9686;48.832;9.126;2023-02-28T17:39:35;12.00;;;8.00;;
19107;SDS011;9686;48.832;9.126;2023-02-28T17:42:10;13.13;;;8.33;;
19107;SDS011;9686;48.832;9.126;2023-02-28T17:44:44;11.40;;;7.77;;
19107;SDS011;9686;48.832;9.126;2023-02-28T17:47:24;12.53;;;8.83;;
19107;SDS011;9686;48.832;9.126;2023-02-28T17:57:13;13.57;;;9.17;;
19107;SDS011;9686;48.832;9.126;2023-02-28T18:03:04;13.57;;;8.30;;
19107;SDS011;9686;48.832;9.126;2023-02-28T18:05:58;11.73;;;8.07;;
19107;SDS011;9686;48.832;9.126;2023-02-28T18:09:33;13.03;;;7.80;;
19107;SDS011;9686;48.832;9.126;2023-02-28T18:15:57;9.80;;;7.57;;
19107;SDS011;9686;48.832;9.126;2023-02-28T18:21:53;11.50;;;8.10;;
19107;SDS011;9686;48.832;9.126;2023-02-28T18:24:33;9.87;;;8.43;;
19107;SDS011;9686;48.832;9.126;2023-02-28T18:27:35;12.80;;;8.10;;
19107;SDS011;9686;48.832;9.126;2023-02-28T18:30:40;10.43;;;8.10;;
19107;SDS011;9686;48.832;9.126;2023-02-28T18:34:07;10.40;;;8.37;;
19107;SDS011;9686;48.832;9.126;2023-02-28T18:37:32;12.50;;;8.57;;
19107;SDS011;9686;48.832;9.126;2023-02-28T18:40:51;11.20;;;8.03;;
19107;SDS011;9686;48.832;9.126;2023-02-28T18:44:07;12.67;;;8.30;;
19107;SDS011;9686;48.832;9.126;2023-02-28T18:46:43;15.73;;;8.60;;
19107;SDS011;9686;48.832;9.126;2023-02-28T18:52:52;14.60;;;8.67;;
19107;SDS011;9686;48.832;9.126;2023-02-28T18:58:59;13.00;;;8.77;;
19107;SDS011;9686;48.832;9.126;2023-02-28T19:02:04;14.97;;;8.53;;
19107;SDS011;9686;48.832;9.126;2023-02-28T19:08:56;13.27;;;8.20;;
19107;SDS011;9686;48.832;9.126;2023-02-28T19:11:24;13.13;;;8.80;;
19107;SDS011;9686;48.832;9.126;2023-02-28T19:17:18;15.37;;;8.57;;
19107;SDS011;9686;48.832;9.126;2023-02-28T19:20:18;13.87;;;8.77;;
19107;SDS011;9686;48.832;9.126;2023-02-28T19:23:03;15.13;;;8.70;;
19107;SDS011;9686;48.832;9.126;2023-02-28T19:25:39;11.40;;;8.67;;
19107;SDS011;9686;48.832;9.126;2023-02-28T19:28:53;13.17;;;9.00;;
19107;SDS011;9686;48.832;9.126;2023-02-28T19:35:20;14.83;;;8.57;;
19107;SDS011;9686;48.832;9.126;2023-02-28T22:23:28;17.37;;;11.63;;
19107;SDS011;9686;48.832;9.126;2023-02-28T22:25:54;20.70;;;13.00;;
19107;SDS011;9686;48.832;9.126;2023-02-28T22:28:20;21.37;;;12.43;;
19107;SDS011;9686;48.832;9.126;2023-02-28T22:30:47;17.93;;;12.27;;
19107;SDS011;9686;48.832;9.126;2023-02-28T22:33:13;18.07;;;12.67;;
19107;SDS011;9686;48.832;9.126;2023-02-28T22:35:39;23.07;;;12.57;;
19107;SDS011;9686;48.832;9.126;2023-02-28T22:38:05;19.07;;;12.40;;
19107;SDS011;9686;48.832;9.126;2023-02-28T22:40:31;20.67;;;12.00;;
19107;SDS011;9686;48.832;9.126;2023-02-28T22:42:56;17.47;;;10.67;;
19107;SDS011;9686;48.832;9.126;2023-02-28T22:45:22;17.50;;;11.93;;
19107;SDS011;9686;48.832;9.126;2023-02-28T22:47:48;19.30;;;12.90;;
19107;SDS011;9686;48.832;9.126;2023-02-28T22:50:13;16.40;;;11.47;;
19107;SDS011;9686;48.832;9.126;2023-02-28T22:52:39;19.57;;;11.67;;
19107;SDS011;9686;48.832;9.126;2023-02-28T22:55:05;15.63;;;11.07;;
19107;SDS011;9686;48.832;9.126;2023-02-28T22:57:32;18.40;;;12.33;;
19107;SDS011;9686;48.832;9.126;2023-02-28T22:59:58;22.90;;;13.57;;
19107;SDS011;9686;48.832;9.126;2023-02-28T23:02:24;19.47;;;13.27;;
19107;SDS011;9686;48.832;9.126;2023-02-28T23:04:49;21.37;;;13.43;;
19107;SDS011;9686;48.832;9.126;2023-02-28T23:07:15;20.27;;;12.80;;
19107;SDS011;9686;48.832;9.126;2023-02-28T23:09:41;18.77;;;12.73;;
19107;SDS011;9686;48.832;9.126;2023-02-28T23:12:06;21.20;;;12.63;;
19107;SDS011;9686;48.832;9.126;2023-02-28T23:14:32;20.20;;;13.00;;
19107;SDS011;9686;48.832;9.126;2023-02-28T23:16:58;19.80;;;12.83;;
19107;SDS011;9686;48.832;9.126;2023-02-28T23:19:24;18.80;;;11.73;;
19107;SDS011;9686;48.832;9.126;2023-02-28T23:21:53;23.90;;;13.70;;
19107;SDS011;9686;48.832;9.126;2023-02-28T23:24:20;24.23;;;13.33;;
19107;SDS011;9686;48.832;9.126;2023-02-28T23:26:48;21.57;;;12.20;;
19107;SDS011;9686;48.832;9.126;2023-02-28T23:29:17;19.50;;;13.00;;
19107;SDS011;9686;48.832;9.126;2023-02-28T23:31:43;20.73;;;12.70;;
19107;SDS011;9686;48.832;9.126;2023-02-28T23:34:09;25.80;;;13.33;;
19107;SDS011;9686;48.832;9.126;2023-02-28T23:36:36;17.67;;;11.73;;
19107;SDS011;9686;48.832;9.126;2023-02-28T23:39:02;19.57;;;12.77;;
19107;SDS011;9686;48.832;9.126;2023-02-28T23:41:28;20.53;;;12.70;;
19107;SDS011;9686;48.832;9.126;2023-02-28T23:43:57;20.37;;;12.83;;
19107;SDS011;9686;48.832;9.126;2023-02-28T23:46:22;19.63;;;12.50;;
19107;SDS011;9686;48.832;9.126;2023-02-28T23:48:47;19.60;;;12.80;;
19107;SDS011;9686;48.832;9.126;2023-02-28T23:51:14;19.40;;;12.33;;
19107;SDS011;9686;48.832;9.126;2023-02-28T23:53:43;22.50;;;13.70;;
19107;SDS011;9686;48.832;9.126;2023-02-28T23:56:14;18.37;;;11.97;;
19107;SDS011;9686;48.832;9.126;2023-02-28T23:58:41;23.00;;;13.30;;
